sensor_id;sensor_type;location;lat;lon;timestamp;temperature;humidity
64689;DHT22;62504;46.070;14.492;2023-06-04T00:02:26;18.10;99.90
64689;DHT22;62504;46.070;14.492;2023-06-04T00:04:52;18.10;99.90
64689;DHT22;62504;46.070;14.492;2023-06-04T00:07:17;18.20;99.90
64689;DHT22;62504;46.070;14.492;2023-06-04T00:09:43;18.20;99.90
64689;DHT22;62504;46.070;14.492;2023-06-04T00:12:11;18.20;99.90
64689;DHT22;62504;46.070;14.492;2023-06-04T00:14:36;18.10;99.90
64689;DHT22;62504;46.070;14.492;2023-06-04T00:17:02;18.10;99.90
64689;DHT22;62504;46.070;14.492;2023-06-04T00:19:27;18.20;99.90
64689;DHT22;62504;46.070;14.492;2023-06-04T00:21:53;18.20;99.90
64689;DHT22;62504;46.070;14.492;2023-06-04T00:24:19;18.20;99.90
64689;DHT22;62504;46.070;14.492;2023-06-04T00:26:45;18.20;99.90
64689;DHT22;62504;46.070;14.492;2023-06-04T00:29:10;18.20;99.90
64689;DHT22;62504;46.070;14.492;2023-06-04T00:31:36;18.20;99.90
64689;DHT22;62504;46.070;14.492;2023-06-04T00:34:04;18.10;99.90
64689;DHT22;62504;46.070;14.492;2023-06-04T00:36:30;18.00;99.90
64689;DHT22;62504;46.070;14.492;2023-06-04T00:38:56;18.10;99.90
64689;DHT22;62504;46.070;14.492;2023-06-04T00:41:21;18.20;99.90
64689;DHT22;62504;46.070;14.492;2023-06-04T00:43:47;18.10;99.90
64689;DHT22;62504;46.070;14.492;2023-06-04T00:46:21;18.00;99.90
64689;DHT22;62504;46.070;14.492;2023-06-04T00:48:47;18.00;99.90
64689;DHT22;62504;46.070;14.492;2023-06-04T00:51:12;18.10;99.90
64689;DHT22;62504;46.070;14.492;2023-06-04T00:53:38;18.00;99.90
64689;DHT22;62504;46.070;14.492;2023-06-04T00:56:04;18.00;99.90
64689;DHT22;62504;46.070;14.492;2023-06-04T00:58:32;18.00;99.90
64689;DHT22;62504;46.070;14.492;2023-06-04T01:01:00;18.00;99.90
64689;DHT22;62504;46.070;14.492;2023-06-04T01:03:31;18.00;99.90
64689;DHT22;62504;46.070;14.492;2023-06-04T01:08:35;18.00;99.90
64689;DHT22;62504;46.070;14.492;2023-06-04T01:11:02;17.90;99.90
64689;DHT22;62504;46.070;14.492;2023-06-04T01:13:27;17.80;99.90
64689;DHT22;62504;46.070;14.492;2023-06-04T01:15:53;17.70;99.90
64689;DHT22;62504;46.070;14.492;2023-06-04T01:18:21;17.80;99.90
64689;DHT22;62504;46.070;14.492;2023-06-04T01:20:59;17.80;99.90
64689;DHT22;62504;46.070;14.492;2023-06-04T01:26:04;17.70;99.90
64689;DHT22;62504;46.070;14.492;2023-06-04T01:28:32;17.70;99.90
64689;DHT22;62504;46.070;14.492;2023-06-04T01:30:59;17.60;99.90
64689;DHT22;62504;46.070;14.492;2023-06-04T01:33:27;17.70;99.90
64689;DHT22;62504;46.070;14.492;2023-06-04T01:35:53;17.80;99.90
64689;DHT22;62504;46.070;14.492;2023-06-04T01:38:18;17.80;99.90
64689;DHT22;62504;46.070;14.492;2023-06-04T01:40:45;17.70;99.90
64689;DHT22;62504;46.070;14.492;2023-06-04T01:43:11;17.50;99.90
64689;DHT22;62504;46.070;14.492;2023-06-04T01:45:36;17.50;99.90
64689;DHT22;62504;46.070;14.492;2023-06-04T01:48:03;17.50;99.90
64689;DHT22;62504;46.070;14.492;2023-06-04T01:50:29;17.50;99.90
64689;DHT22;62504;46.070;14.492;2023-06-04T01:52:56;17.50;99.90
64689;DHT22;62504;46.070;14.492;2023-06-04T01:55:21;17.40;99.90
64689;DHT22;62504;46.070;14.492;2023-06-04T01:57:47;17.30;99.90
64689;DHT22;62504;46.070;14.492;2023-06-04T02:00:14;17.20;99.90
64689;DHT22;62504;46.070;14.492;2023-06-04T02:02:43;17.20;99.90
64689;DHT22;62504;46.070;14.492;2023-06-04T02:05:10;17.20;99.90
64689;DHT22;62504;46.070;14.492;2023-06-04T02:07:40;17.20;99.90
64689;DHT22;62504;46.070;14.492;2023-06-04T02:10:09;17.20;99.90
64689;DHT22;62504;46.070;14.492;2023-06-04T02:12:40;17.00;99.90
64689;DHT22;62504;46.070;14.492;2023-06-04T02:15:07;17.00;99.90
64689;DHT22;62504;46.070;14.492;2023-06-04T02:17:34;17.10;99.90
64689;DHT22;62504;46.070;14.492;2023-06-04T02:20:04;17.10;99.90
64689;DHT22;62504;46.070;14.492;2023-06-04T02:22:30;17.10;99.90
64689;DHT22;62504;46.070;14.492;2023-06-04T02:24:55;17.00;99.90
64689;DHT22;62504;46.070;14.492;2023-06-04T02:27:21;16.90;99.90
64689;DHT22;62504;46.070;14.492;2023-06-04T02:29:47;16.80;99.90
64689;DHT22;62504;46.070;14.492;2023-06-04T02:32:13;16.90;99.90
64689;DHT22;62504;46.070;14.492;2023-06-04T02:34:38;17.00;99.90
64689;DHT22;62504;46.070;14.492;2023-06-04T02:37:04;17.00;99.90
64689;DHT22;62504;46.070;14.492;2023-06-04T02:39:30;17.00;99.90
64689;DHT22;62504;46.070;14.492;2023-06-04T02:41:56;17.00;99.90
64689;DHT22;62504;46.070;14.492;2023-06-04T02:44:21;17.00;99.90
64689;DHT22;62504;46.070;14.492;2023-06-04T02:46:47;17.00;99.90
64689;DHT22;62504;46.070;14.492;2023-06-04T02:49:12;16.90;99.90
64689;DHT22;62504;46.070;14.492;2023-06-04T02:51:45;16.80;99.90
64689;DHT22;62504;46.070;14.492;2023-06-04T02:54:11;16.80;99.90
64689;DHT22;62504;46.070;14.492;2023-06-04T02:56:37;16.90;99.90
64689;DHT22;62504;46.070;14.492;2023-06-04T02:59:03;16.90;99.90
64689;DHT22;62504;46.070;14.492;2023-06-04T03:01:29;16.90;99.90
64689;DHT22;62504;46.070;14.492;2023-06-04T03:03:56;16.80;99.90
64689;DHT22;62504;46.070;14.492;2023-06-04T03:06:23;16.90;99.90
64689;DHT22;62504;46.070;14.492;2023-06-04T03:08:49;16.80;99.90
64689;DHT22;62504;46.070;14.492;2023-06-04T03:11:16;16.80;99.90
64689;DHT22;62504;46.070;14.492;2023-06-04T03:13:41;16.80;99.90
64689;DHT22;62504;46.070;14.492;2023-06-04T03:16:07;16.70;99.90
64689;DHT22;62504;46.070;14.492;2023-06-04T03:18:35;16.80;99.90
64689;DHT22;62504;46.070;14.492;2023-06-04T03:21:02;16.90;99.90
64689;DHT22;62504;46.070;14.492;2023-06-04T03:23:28;16.80;99.90
64689;DHT22;62504;46.070;14.492;2023-06-04T03:25:53;16.70;99.90
64689;DHT22;62504;46.070;14.492;2023-06-04T03:28:19;16.60;99.90
64689;DHT22;62504;46.070;14.492;2023-06-04T03:30:45;16.80;99.90
64689;DHT22;62504;46.070;14.492;2023-06-04T03:33:10;17.00;99.90
64689;DHT22;62504;46.070;14.492;2023-06-04T03:35:36;17.00;99.90
64689;DHT22;62504;46.070;14.492;2023-06-04T03:38:01;17.00;99.90
64689;DHT22;62504;46.070;14.492;2023-06-04T03:40:27;16.80;99.90
64689;DHT22;62504;46.070;14.492;2023-06-04T03:42:52;16.90;99.90
64689;DHT22;62504;46.070;14.492;2023-06-04T03:45:18;17.00;99.90
64689;DHT22;62504;46.070;14.492;2023-06-04T03:47:45;17.00;99.90
64689;DHT22;62504;46.070;14.492;2023-06-04T03:50:11;17.20;99.90
64689;DHT22;62504;46.070;14.492;2023-06-04T03:52:36;17.20;99.90
64689;DHT22;62504;46.070;14.492;2023-06-04T03:55:02;17.30;99.90
64689;DHT22;62504;46.070;14.492;2023-06-04T03:57:28;17.30;99.90
64689;DHT22;62504;46.070;14.492;2023-06-04T03:59:54;17.30;99.90
64689;DHT22;62504;46.070;14.492;2023-06-04T04:02:20;17.20;99.90
64689;DHT22;62504;46.070;14.492;2023-06-04T04:04:46;17.10;99.90
64689;DHT22;62504;46.070;14.492;2023-06-04T04:07:12;17.20;99.90
64689;DHT22;62504;46.070;14.492;2023-06-04T04:09:38;17.20;99.90
64689;DHT22;62504;46.070;14.492;2023-06-04T04:12:04;17.20;99.90
64689;DHT22;62504;46.070;14.492;2023-06-04T04:14:30;17.30;99.90
64689;DHT22;62504;46.070;14.492;2023-06-04T04:16:55;17.30;99.90
64689;DHT22;62504;46.070;14.492;2023-06-04T04:19:21;17.20;99.90
64689;DHT22;62504;46.070;14.492;2023-06-04T04:21:47;17.20;99.90
64689;DHT22;62504;46.070;14.492;2023-06-04T04:24:25;17.20;99.90
64689;DHT22;62504;46.070;14.492;2023-06-04T04:26:51;17.20;99.90
64689;DHT22;62504;46.070;14.492;2023-06-04T04:29:23;17.10;99.90
64689;DHT22;62504;46.070;14.492;2023-06-04T04:31:51;17.10;99.90
64689;DHT22;62504;46.070;14.492;2023-06-04T04:34:16;17.10;99.90
64689;DHT22;62504;46.070;14.492;2023-06-04T04:36:43;17.00;99.90
64689;DHT22;62504;46.070;14.492;2023-06-04T04:39:09;17.10;99.90
64689;DHT22;62504;46.070;14.492;2023-06-04T04:41:37;17.10;99.90
64689;DHT22;62504;46.070;14.492;2023-06-04T04:44:04;16.90;99.90
64689;DHT22;62504;46.070;14.492;2023-06-04T04:46:30;16.90;99.90
64689;DHT22;62504;46.070;14.492;2023-06-04T04:48:56;17.00;99.90
64689;DHT22;62504;46.070;14.492;2023-06-04T04:51:21;17.00;99.90
64689;DHT22;62504;46.070;14.492;2023-06-04T04:53:47;17.00;99.90
64689;DHT22;62504;46.070;14.492;2023-06-04T04:56:13;16.70;99.90
64689;DHT22;62504;46.070;14.492;2023-06-04T04:58:39;16.70;99.90
64689;DHT22;62504;46.070;14.492;2023-06-04T05:01:04;16.70;99.90
64689;DHT22;62504;46.070;14.492;2023-06-04T05:03:30;16.90;99.90
64689;DHT22;62504;46.070;14.492;2023-06-04T05:05:56;17.10;99.90
64689;DHT22;62504;46.070;14.492;2023-06-04T05:08:21;16.80;99.90
64689;DHT22;62504;46.070;14.492;2023-06-04T05:10:47;16.90;99.90
64689;DHT22;62504;46.070;14.492;2023-06-04T05:13:12;16.90;99.90
64689;DHT22;62504;46.070;14.492;2023-06-04T05:15:38;16.90;99.90
64689;DHT22;62504;46.070;14.492;2023-06-04T05:18:05;17.10;99.90
64689;DHT22;62504;46.070;14.492;2023-06-04T05:20:31;17.20;99.90
64689;DHT22;62504;46.070;14.492;2023-06-04T05:22:56;17.30;99.90
64689;DHT22;62504;46.070;14.492;2023-06-04T05:25:22;17.30;99.90
64689;DHT22;62504;46.070;14.492;2023-06-04T05:27:48;17.30;99.90
64689;DHT22;62504;46.070;14.492;2023-06-04T05:30:15;17.30;99.90
64689;DHT22;62504;46.070;14.492;2023-06-04T05:32:40;17.40;99.90
64689;DHT22;62504;46.070;14.492;2023-06-04T05:35:06;17.50;99.90
64689;DHT22;62504;46.070;14.492;2023-06-04T05:37:33;17.50;99.90
64689;DHT22;62504;46.070;14.492;2023-06-04T05:40:00;17.60;99.90
64689;DHT22;62504;46.070;14.492;2023-06-04T05:42:25;17.60;99.90
64689;DHT22;62504;46.070;14.492;2023-06-04T05:44:51;17.60;99.90
64689;DHT22;62504;46.070;14.492;2023-06-04T05:47:17;17.70;99.90
64689;DHT22;62504;46.070;14.492;2023-06-04T05:49:44;17.70;99.90
64689;DHT22;62504;46.070;14.492;2023-06-04T05:52:10;17.80;99.90
64689;DHT22;62504;46.070;14.492;2023-06-04T05:54:35;17.90;99.90
64689;DHT22;62504;46.070;14.492;2023-06-04T05:57:03;17.90;99.90
64689;DHT22;62504;46.070;14.492;2023-06-04T05:59:29;18.00;99.90
64689;DHT22;62504;46.070;14.492;2023-06-04T06:01:56;18.20;99.90
64689;DHT22;62504;46.070;14.492;2023-06-04T06:04:21;18.30;99.90
64689;DHT22;62504;46.070;14.492;2023-06-04T06:06:47;18.40;99.90
64689;DHT22;62504;46.070;14.492;2023-06-04T06:09:14;18.40;99.90
64689;DHT22;62504;46.070;14.492;2023-06-04T06:11:41;18.50;99.90
64689;DHT22;62504;46.070;14.492;2023-06-04T06:14:06;18.40;99.90
64689;DHT22;62504;46.070;14.492;2023-06-04T06:16:32;18.30;99.90
64689;DHT22;62504;46.070;14.492;2023-06-04T06:18:58;18.20;99.90
64689;DHT22;62504;46.070;14.492;2023-06-04T06:21:24;18.30;99.90
64689;DHT22;62504;46.070;14.492;2023-06-04T06:23:49;18.40;99.90
64689;DHT22;62504;46.070;14.492;2023-06-04T06:26:15;18.40;99.90
64689;DHT22;62504;46.070;14.492;2023-06-04T06:28:42;18.60;99.90
64689;DHT22;62504;46.070;14.492;2023-06-04T06:31:08;18.60;99.90
64689;DHT22;62504;46.070;14.492;2023-06-04T06:33:33;18.70;99.90
64689;DHT22;62504;46.070;14.492;2023-06-04T06:35:59;18.80;99.90
64689;DHT22;62504;46.070;14.492;2023-06-04T06:38:27;18.60;99.90
64689;DHT22;62504;46.070;14.492;2023-06-04T06:40:53;18.60;99.90
64689;DHT22;62504;46.070;14.492;2023-06-04T06:43:18;18.60;99.90
64689;DHT22;62504;46.070;14.492;2023-06-04T06:45:44;18.70;99.90
64689;DHT22;62504;46.070;14.492;2023-06-04T06:48:09;18.70;99.90
64689;DHT22;62504;46.070;14.492;2023-06-04T06:50:35;18.80;99.90
64689;DHT22;62504;46.070;14.492;2023-06-04T06:53:04;18.90;99.90
64689;DHT22;62504;46.070;14.492;2023-06-04T06:55:30;18.90;99.90
64689;DHT22;62504;46.070;14.492;2023-06-04T06:57:56;19.00;99.90
64689;DHT22;62504;46.070;14.492;2023-06-04T07:00:21;18.90;99.90
64689;DHT22;62504;46.070;14.492;2023-06-04T07:02:47;18.90;99.90
64689;DHT22;62504;46.070;14.492;2023-06-04T07:05:14;18.80;99.90
64689;DHT22;62504;46.070;14.492;2023-06-04T07:07:41;18.80;99.90
64689;DHT22;62504;46.070;14.492;2023-06-04T07:10:07;19.00;99.90
64689;DHT22;62504;46.070;14.492;2023-06-04T07:12:32;18.90;99.90
64689;DHT22;62504;46.070;14.492;2023-06-04T07:14:58;18.90;99.90
64689;DHT22;62504;46.070;14.492;2023-06-04T07:17:24;19.00;99.90
64689;DHT22;62504;46.070;14.492;2023-06-04T07:19:49;19.10;99.90
64689;DHT22;62504;46.070;14.492;2023-06-04T07:22:15;19.30;99.90
64689;DHT22;62504;46.070;14.492;2023-06-04T07:24:41;19.30;99.90
64689;DHT22;62504;46.070;14.492;2023-06-04T07:27:13;19.40;99.90
64689;DHT22;62504;46.070;14.492;2023-06-04T07:29:39;19.50;99.90
64689;DHT22;62504;46.070;14.492;2023-06-04T07:32:05;19.60;99.90
64689;DHT22;62504;46.070;14.492;2023-06-04T07:34:32;19.50;99.90
64689;DHT22;62504;46.070;14.492;2023-06-04T07:36:57;19.60;99.90
64689;DHT22;62504;46.070;14.492;2023-06-04T07:39:23;19.60;99.90
64689;DHT22;62504;46.070;14.492;2023-06-04T07:41:49;19.70;99.90
64689;DHT22;62504;46.070;14.492;2023-06-04T07:44:14;19.60;99.90
64689;DHT22;62504;46.070;14.492;2023-06-04T07:46:41;19.80;99.90
64689;DHT22;62504;46.070;14.492;2023-06-04T07:49:08;20.00;99.90
64689;DHT22;62504;46.070;14.492;2023-06-04T07:51:33;20.20;99.90
64689;DHT22;62504;46.070;14.492;2023-06-04T07:54:00;20.30;99.90
64689;DHT22;62504;46.070;14.492;2023-06-04T07:56:26;21.10;99.90
64689;DHT22;62504;46.070;14.492;2023-06-04T07:58:52;21.70;99.90
64689;DHT22;62504;46.070;14.492;2023-06-04T08:01:17;21.80;99.90
64689;DHT22;62504;46.070;14.492;2023-06-04T08:03:43;21.30;99.90
64689;DHT22;62504;46.070;14.492;2023-06-04T08:06:09;21.80;99.90
64689;DHT22;62504;46.070;14.492;2023-06-04T08:08:36;22.20;99.90
64689;DHT22;62504;46.070;14.492;2023-06-04T08:11:02;22.10;99.90
64689;DHT22;62504;46.070;14.492;2023-06-04T08:13:28;22.20;99.90
64689;DHT22;62504;46.070;14.492;2023-06-04T08:15:53;22.60;99.90
64689;DHT22;62504;46.070;14.492;2023-06-04T08:18:19;22.60;99.90
64689;DHT22;62504;46.070;14.492;2023-06-04T08:20:45;22.50;99.90
64689;DHT22;62504;46.070;14.492;2023-06-04T08:23:11;22.50;99.90
64689;DHT22;62504;46.070;14.492;2023-06-04T08:25:36;22.10;99.90
64689;DHT22;62504;46.070;14.492;2023-06-04T08:28:02;21.70;99.90
64689;DHT22;62504;46.070;14.492;2023-06-04T08:30:28;21.60;99.90
64689;DHT22;62504;46.070;14.492;2023-06-04T08:32:54;21.60;99.90
64689;DHT22;62504;46.070;14.492;2023-06-04T08:35:20;21.60;99.90
64689;DHT22;62504;46.070;14.492;2023-06-04T08:37:46;21.60;99.90
64689;DHT22;62504;46.070;14.492;2023-06-04T08:40:12;21.80;99.90
64689;DHT22;62504;46.070;14.492;2023-06-04T08:42:41;22.00;99.90
64689;DHT22;62504;46.070;14.492;2023-06-04T08:45:12;22.10;99.90
64689;DHT22;62504;46.070;14.492;2023-06-04T08:47:43;22.10;99.90
64689;DHT22;62504;46.070;14.492;2023-06-04T08:50:10;21.80;99.90
64689;DHT22;62504;46.070;14.492;2023-06-04T08:52:37;21.50;99.90
64689;DHT22;62504;46.070;14.492;2023-06-04T08:55:05;21.60;99.90
64689;DHT22;62504;46.070;14.492;2023-06-04T08:57:31;22.00;99.90
64689;DHT22;62504;46.070;14.492;2023-06-04T08:59:56;22.10;99.90
64689;DHT22;62504;46.070;14.492;2023-06-04T09:02:22;21.90;99.90
64689;DHT22;62504;46.070;14.492;2023-06-04T09:04:49;21.90;99.90
64689;DHT22;62504;46.070;14.492;2023-06-04T09:07:16;22.00;99.90
64689;DHT22;62504;46.070;14.492;2023-06-04T09:09:45;22.00;99.90
64689;DHT22;62504;46.070;14.492;2023-06-04T09:12:15;21.90;99.90
64689;DHT22;62504;46.070;14.492;2023-06-04T09:14:42;22.00;99.90
64689;DHT22;62504;46.070;14.492;2023-06-04T09:17:08;22.10;99.90
64689;DHT22;62504;46.070;14.492;2023-06-04T09:19:33;22.10;99.90
64689;DHT22;62504;46.070;14.492;2023-06-04T09:22:00;22.10;99.90
64689;DHT22;62504;46.070;14.492;2023-06-04T09:24:44;22.30;99.90
64689;DHT22;62504;46.070;14.492;2023-06-04T09:27:19;22.40;99.90
64689;DHT22;62504;46.070;14.492;2023-06-04T09:29:52;22.20;99.90
64689;DHT22;62504;46.070;14.492;2023-06-04T09:32:26;22.40;99.90
64689;DHT22;62504;46.070;14.492;2023-06-04T09:37:41;22.70;99.90
64689;DHT22;62504;46.070;14.492;2023-06-04T09:40:09;22.70;99.90
64689;DHT22;62504;46.070;14.492;2023-06-04T09:42:45;22.60;99.90
64689;DHT22;62504;46.070;14.492;2023-06-04T09:45:11;22.40;99.90
64689;DHT22;62504;46.070;14.492;2023-06-04T09:47:44;22.10;99.90
64689;DHT22;62504;46.070;14.492;2023-06-04T09:50:12;22.10;99.90
64689;DHT22;62504;46.070;14.492;2023-06-04T09:52:38;22.10;99.90
64689;DHT22;62504;46.070;14.492;2023-06-04T09:55:25;22.10;99.90
64689;DHT22;62504;46.070;14.492;2023-06-04T09:57:52;22.00;99.90
64689;DHT22;62504;46.070;14.492;2023-06-04T10:00:19;21.90;99.90
64689;DHT22;62504;46.070;14.492;2023-06-04T10:02:49;21.90;99.90
64689;DHT22;62504;46.070;14.492;2023-06-04T10:05:16;21.80;99.90
64689;DHT22;62504;46.070;14.492;2023-06-04T10:07:46;21.80;99.90
64689;DHT22;62504;46.070;14.492;2023-06-04T10:10:18;21.70;99.90
64689;DHT22;62504;46.070;14.492;2023-06-04T10:12:52;21.70;99.90
64689;DHT22;62504;46.070;14.492;2023-06-04T10:15:19;21.60;99.90
64689;DHT22;62504;46.070;14.492;2023-06-04T10:17:47;21.60;99.90
64689;DHT22;62504;46.070;14.492;2023-06-04T10:20:14;21.50;99.90
64689;DHT22;62504;46.070;14.492;2023-06-04T10:22:39;21.50;99.90
64689;DHT22;62504;46.070;14.492;2023-06-04T10:25:06;21.50;99.90
64689;DHT22;62504;46.070;14.492;2023-06-04T10:27:34;21.40;99.90
64689;DHT22;62504;46.070;14.492;2023-06-04T10:30:01;21.40;99.90
64689;DHT22;62504;46.070;14.492;2023-06-04T10:32:29;21.40;99.90
64689;DHT22;62504;46.070;14.492;2023-06-04T10:34:55;21.40;99.90
64689;DHT22;62504;46.070;14.492;2023-06-04T10:37:24;21.40;99.90
64689;DHT22;62504;46.070;14.492;2023-06-04T10:39:54;21.40;99.90
64689;DHT22;62504;46.070;14.492;2023-06-04T10:42:21;21.40;99.90
64689;DHT22;62504;46.070;14.492;2023-06-04T10:44:49;21.40;99.90
64689;DHT22;62504;46.070;14.492;2023-06-04T10:47:26;21.40;99.90
64689;DHT22;62504;46.070;14.492;2023-06-04T10:49:53;21.40;99.90
64689;DHT22;62504;46.070;14.492;2023-06-04T10:52:20;21.40;99.90
64689;DHT22;62504;46.070;14.492;2023-06-04T10:54:47;21.30;99.90
64689;DHT22;62504;46.070;14.492;2023-06-04T10:57:17;21.20;99.90
64689;DHT22;62504;46.070;14.492;2023-06-04T10:59:56;21.10;99.90
64689;DHT22;62504;46.070;14.492;2023-06-04T11:02:21;21.10;99.90
64689;DHT22;62504;46.070;14.492;2023-06-04T11:04:57;21.20;99.90
64689;DHT22;62504;46.070;14.492;2023-06-04T11:07:23;21.10;99.90
64689;DHT22;62504;46.070;14.492;2023-06-04T11:09:50;21.10;99.90
64689;DHT22;62504;46.070;14.492;2023-06-04T11:12:16;21.00;99.90
64689;DHT22;62504;46.070;14.492;2023-06-04T11:14:54;20.70;99.90
64689;DHT22;62504;46.070;14.492;2023-06-04T11:17:20;20.40;99.90
64689;DHT22;62504;46.070;14.492;2023-06-04T11:19:46;20.30;99.90
64689;DHT22;62504;46.070;14.492;2023-06-04T11:22:11;19.90;99.90
64689;DHT22;62504;46.070;14.492;2023-06-04T11:24:40;19.80;99.90
64689;DHT22;62504;46.070;14.492;2023-06-04T11:27:06;19.70;99.90
64689;DHT22;62504;46.070;14.492;2023-06-04T11:29:32;19.60;99.90
64689;DHT22;62504;46.070;14.492;2023-06-04T11:31:58;19.60;99.90
64689;DHT22;62504;46.070;14.492;2023-06-04T11:34:25;19.60;99.90
64689;DHT22;62504;46.070;14.492;2023-06-04T11:36:51;19.60;99.90
64689;DHT22;62504;46.070;14.492;2023-06-04T11:39:18;19.60;99.90
64689;DHT22;62504;46.070;14.492;2023-06-04T11:41:45;19.40;99.90
64689;DHT22;62504;46.070;14.492;2023-06-04T11:44:11;19.10;99.90
64689;DHT22;62504;46.070;14.492;2023-06-04T11:46:44;19.00;99.90
64689;DHT22;62504;46.070;14.492;2023-06-04T11:49:16;18.80;99.90
64689;DHT22;62504;46.070;14.492;2023-06-04T11:51:51;18.70;99.90
64689;DHT22;62504;46.070;14.492;2023-06-04T11:54:17;18.80;99.90
64689;DHT22;62504;46.070;14.492;2023-06-04T11:56:44;18.90;99.90
64689;DHT22;62504;46.070;14.492;2023-06-04T11:59:11;18.80;99.90
64689;DHT22;62504;46.070;14.492;2023-06-04T12:01:42;18.90;99.90
64689;DHT22;62504;46.070;14.492;2023-06-04T12:04:15;19.10;99.90
64689;DHT22;62504;46.070;14.492;2023-06-04T12:07:11;18.90;99.90
64689;DHT22;62504;46.070;14.492;2023-06-04T12:09:37;18.80;99.90
64689;DHT22;62504;46.070;14.492;2023-06-04T12:12:07;18.80;99.90
64689;DHT22;62504;46.070;14.492;2023-06-04T12:14:33;18.90;99.90
64689;DHT22;62504;46.070;14.492;2023-06-04T12:17:07;18.90;99.90
64689;DHT22;62504;46.070;14.492;2023-06-04T12:19:33;18.90;99.90
64689;DHT22;62504;46.070;14.492;2023-06-04T12:24:29;19.10;99.90
64689;DHT22;62504;46.070;14.492;2023-06-04T12:27:05;19.10;99.90
64689;DHT22;62504;46.070;14.492;2023-06-04T12:29:32;19.00;99.90
64689;DHT22;62504;46.070;14.492;2023-06-04T12:32:06;19.00;99.90
64689;DHT22;62504;46.070;14.492;2023-06-04T12:34:34;19.10;99.90
64689;DHT22;62504;46.070;14.492;2023-06-04T12:37:00;19.10;99.90
64689;DHT22;62504;46.070;14.492;2023-06-04T12:39:26;19.20;99.90
64689;DHT22;62504;46.070;14.492;2023-06-04T12:41:52;19.20;99.90
64689;DHT22;62504;46.070;14.492;2023-06-04T12:44:17;19.00;99.90
64689;DHT22;62504;46.070;14.492;2023-06-04T12:46:43;19.00;99.90
64689;DHT22;62504;46.070;14.492;2023-06-04T12:49:09;19.20;99.90
64689;DHT22;62504;46.070;14.492;2023-06-04T12:51:34;19.20;99.90
64689;DHT22;62504;46.070;14.492;2023-06-04T12:54:01;19.20;99.90
64689;DHT22;62504;46.070;14.492;2023-06-04T12:56:27;19.10;99.90
64689;DHT22;62504;46.070;14.492;2023-06-04T12:58:53;19.00;99.90
64689;DHT22;62504;46.070;14.492;2023-06-04T13:01:18;19.10;99.90
64689;DHT22;62504;46.070;14.492;2023-06-04T13:03:44;19.10;99.90
64689;DHT22;62504;46.070;14.492;2023-06-04T13:06:10;19.10;99.90
64689;DHT22;62504;46.070;14.492;2023-06-04T13:08:36;19.20;99.90
64689;DHT22;62504;46.070;14.492;2023-06-04T13:11:02;19.20;99.90
64689;DHT22;62504;46.070;14.492;2023-06-04T13:13:28;19.30;99.90
64689;DHT22;62504;46.070;14.492;2023-06-04T13:15:54;19.40;99.90
64689;DHT22;62504;46.070;14.492;2023-06-04T13:18:20;19.30;99.90
64689;DHT22;62504;46.070;14.492;2023-06-04T13:20:45;19.30;99.90
64689;DHT22;62504;46.070;14.492;2023-06-04T13:23:11;19.50;99.90
64689;DHT22;62504;46.070;14.492;2023-06-04T13:25:38;19.70;99.90
64689;DHT22;62504;46.070;14.492;2023-06-04T13:28:04;19.80;99.90
64689;DHT22;62504;46.070;14.492;2023-06-04T13:30:30;19.80;99.90
64689;DHT22;62504;46.070;14.492;2023-06-04T13:32:56;19.70;99.90
64689;DHT22;62504;46.070;14.492;2023-06-04T13:35:24;19.40;99.90
64689;DHT22;62504;46.070;14.492;2023-06-04T13:37:50;19.50;99.90
64689;DHT22;62504;46.070;14.492;2023-06-04T13:40:15;19.60;99.90
64689;DHT22;62504;46.070;14.492;2023-06-04T13:42:41;19.90;99.90
64689;DHT22;62504;46.070;14.492;2023-06-04T13:45:08;19.90;99.90
64689;DHT22;62504;46.070;14.492;2023-06-04T13:47:34;20.00;99.90
64689;DHT22;62504;46.070;14.492;2023-06-04T13:49:59;20.00;99.90
64689;DHT22;62504;46.070;14.492;2023-06-04T13:52:25;20.10;99.90
64689;DHT22;62504;46.070;14.492;2023-06-04T13:54:53;20.10;99.90
64689;DHT22;62504;46.070;14.492;2023-06-04T13:57:19;20.10;99.90
64689;DHT22;62504;46.070;14.492;2023-06-04T13:59:45;20.20;99.90
64689;DHT22;62504;46.070;14.492;2023-06-04T14:02:10;20.20;99.90
64689;DHT22;62504;46.070;14.492;2023-06-04T14:04:36;20.20;99.90
64689;DHT22;62504;46.070;14.492;2023-06-04T14:07:02;20.20;99.90
64689;DHT22;62504;46.070;14.492;2023-06-04T14:09:27;20.20;99.90
64689;DHT22;62504;46.070;14.492;2023-06-04T14:11:53;20.30;99.90
64689;DHT22;62504;46.070;14.492;2023-06-04T14:14:22;20.20;99.90
64689;DHT22;62504;46.070;14.492;2023-06-04T14:16:48;20.30;99.90
64689;DHT22;62504;46.070;14.492;2023-06-04T14:19:14;20.40;99.90
64689;DHT22;62504;46.070;14.492;2023-06-04T14:21:44;20.40;99.90
64689;DHT22;62504;46.070;14.492;2023-06-04T14:24:10;20.20;99.90
64689;DHT22;62504;46.070;14.492;2023-06-04T14:26:36;20.20;99.90
64689;DHT22;62504;46.070;14.492;2023-06-04T14:29:03;20.30;99.90
64689;DHT22;62504;46.070;14.492;2023-06-04T14:31:29;20.30;99.90
64689;DHT22;62504;46.070;14.492;2023-06-04T14:33:54;20.60;99.90
64689;DHT22;62504;46.070;14.492;2023-06-04T14:36:20;20.70;99.90
64689;DHT22;62504;46.070;14.492;2023-06-04T14:38:46;20.60;99.90
64689;DHT22;62504;46.070;14.492;2023-06-04T14:41:11;20.60;99.90
64689;DHT22;62504;46.070;14.492;2023-06-04T14:43:37;20.50;99.90
64689;DHT22;62504;46.070;14.492;2023-06-04T14:46:03;20.50;99.90
64689;DHT22;62504;46.070;14.492;2023-06-04T14:48:29;20.60;99.90
64689;DHT22;62504;46.070;14.492;2023-06-04T14:50:55;20.40;99.90
64689;DHT22;62504;46.070;14.492;2023-06-04T14:53:21;20.40;99.90
64689;DHT22;62504;46.070;14.492;2023-06-04T14:55:48;20.60;99.90
64689;DHT22;62504;46.070;14.492;2023-06-04T14:58:14;20.60;99.90
64689;DHT22;62504;46.070;14.492;2023-06-04T17:22:10;20.30;99.90
64689;DHT22;62504;46.070;14.492;2023-06-04T17:24:36;20.20;99.90
64689;DHT22;62504;46.070;14.492;2023-06-04T17:27:01;20.20;99.90
64689;DHT22;62504;46.070;14.492;2023-06-04T17:29:27;20.20;99.90
64689;DHT22;62504;46.070;14.492;2023-06-04T17:31:52;20.20;99.90
64689;DHT22;62504;46.070;14.492;2023-06-04T17:34:18;20.20;99.90
64689;DHT22;62504;46.070;14.492;2023-06-04T17:36:44;20.30;99.90
64689;DHT22;62504;46.070;14.492;2023-06-04T17:39:09;20.30;99.90
64689;DHT22;62504;46.070;14.492;2023-06-04T17:41:35;20.40;99.90
64689;DHT22;62504;46.070;14.492;2023-06-04T17:44:04;20.40;99.90
64689;DHT22;62504;46.070;14.492;2023-06-04T17:46:33;20.40;99.90